sensor_id;sensor_type;location;lat;lon;timestamp;P1;durP1;ratioP1;P2;durP2;ratioP2
63394;SDS011;49531;-34.520;150.798;2023-05-10T00:00:47;0.70;;;0.70;;
63394;SDS011;49531;-34.520;150.798;2023-05-10T00:03:14;0.90;;;0.80;;
63394;SDS011;49531;-34.520;150.798;2023-05-10T00:05:41;0.70;;;0.70;;
63394;SDS011;49531;-34.520;150.798;2023-05-10T00:08:08;0.93;;;0.80;;
63394;SDS011;49531;-34.520;150.798;2023-05-10T00:10:38;0.80;;;0.80;;
63394;SDS011;49531;-34.520;150.798;2023-05-10T00:13:15;1.10;;;0.82;;
63394;SDS011;49531;-34.520;150.798;2023-05-10T00:15:50;1.05;;;0.90;;
63394;SDS011;49531;-34.520;150.798;2023-05-10T00:18:17;0.80;;;0.80;;
63394;SDS011;49531;-34.520;150.798;2023-05-10T00:20:45;1.00;;;0.80;;
63394;SDS011;49531;-34.520;150.798;2023-05-10T00:23:12;1.05;;;0.80;;
63394;SDS011;49531;-34.520;150.798;2023-05-10T00:25:39;1.27;;;0.70;;
63394;SDS011;49531;-34.520;150.798;2023-05-10T00:28:06;0.75;;;0.75;;
63394;SDS011;49531;-34.520;150.798;2023-05-10T00:30:33;1.58;;;0.80;;
63394;SDS011;49531;-34.520;150.798;2023-05-10T00:33:01;1.33;;;0.70;;
63394;SDS011;49531;-34.520;150.798;2023-05-10T00:35:28;0.98;;;0.80;;
63394;SDS011;49531;-34.520;150.798;2023-05-10T00:37:56;0.80;;;0.70;;
63394;SDS011;49531;-34.520;150.798;2023-05-10T00:40:23;0.65;;;0.65;;
63394;SDS011;49531;-34.520;150.798;2023-05-10T00:42:53;0.80;;;0.80;;
63394;SDS011;49531;-34.520;150.798;2023-05-10T00:45:31;0.82;;;0.70;;
63394;SDS011;49531;-34.520;150.798;2023-05-10T00:48:00;1.15;;;0.70;;
63394;SDS011;49531;-34.520;150.798;2023-05-10T00:50:50;0.95;;;0.73;;
63394;SDS011;49531;-34.520;150.798;2023-05-10T00:53:19;0.90;;;0.80;;
63394;SDS011;49531;-34.520;150.798;2023-05-10T00:55:46;0.60;;;0.60;;
63394;SDS011;49531;-34.520;150.798;2023-05-10T00:58:13;0.88;;;0.60;;
63394;SDS011;49531;-34.520;150.798;2023-05-10T01:00:41;0.80;;;0.70;;
63394;SDS011;49531;-34.520;150.798;2023-05-10T01:03:10;0.75;;;0.68;;
63394;SDS011;49531;-34.520;150.798;2023-05-10T01:05:38;1.45;;;0.80;;
63394;SDS011;49531;-34.520;150.798;2023-05-10T01:08:05;0.73;;;0.73;;
63394;SDS011;49531;-34.520;150.798;2023-05-10T01:10:34;1.67;;;0.85;;
63394;SDS011;49531;-34.520;150.798;2023-05-10T01:13:01;1.13;;;0.70;;
63394;SDS011;49531;-34.520;150.798;2023-05-10T01:15:28;0.77;;;0.65;;
63394;SDS011;49531;-34.520;150.798;2023-05-10T01:17:57;0.88;;;0.70;;
63394;SDS011;49531;-34.520;150.798;2023-05-10T01:20:24;0.95;;;0.70;;
63394;SDS011;49531;-34.520;150.798;2023-05-10T01:23:04;0.70;;;0.70;;
63394;SDS011;49531;-34.520;150.798;2023-05-10T01:26:02;0.88;;;0.73;;
63394;SDS011;49531;-34.520;150.798;2023-05-10T01:29:06;1.50;;;0.80;;
63394;SDS011;49531;-34.520;150.798;2023-05-10T01:34:13;1.08;;;0.60;;
63394;SDS011;49531;-34.520;150.798;2023-05-10T01:36:48;1.10;;;0.77;;
63394;SDS011;49531;-34.520;150.798;2023-05-10T01:39:25;1.42;;;0.70;;
63394;SDS011;49531;-34.520;150.798;2023-05-10T01:42:04;0.70;;;0.70;;
63394;SDS011;49531;-34.520;150.798;2023-05-10T01:44:37;1.13;;;0.75;;
63394;SDS011;49531;-34.520;150.798;2023-05-10T01:47:17;0.88;;;0.70;;
63394;SDS011;49531;-34.520;150.798;2023-05-10T01:49:55;0.82;;;0.70;;
63394;SDS011;49531;-34.520;150.798;2023-05-10T01:52:25;0.57;;;0.57;;
63394;SDS011;49531;-34.520;150.798;2023-05-10T01:55:00;1.23;;;0.75;;
63394;SDS011;49531;-34.520;150.798;2023-05-10T01:57:33;1.13;;;0.80;;
63394;SDS011;49531;-34.520;150.798;2023-05-10T02:00:02;1.23;;;0.70;;
63394;SDS011;49531;-34.520;150.798;2023-05-10T02:02:31;0.65;;;0.63;;
63394;SDS011;49531;-34.520;150.798;2023-05-10T02:05:04;1.02;;;0.68;;
63394;SDS011;49531;-34.520;150.798;2023-05-10T02:07:34;1.45;;;0.82;;
63394;SDS011;49531;-34.520;150.798;2023-05-10T02:10:04;2.00;;;0.80;;
63394;SDS011;49531;-34.520;150.798;2023-05-10T02:12:36;0.90;;;0.70;;
63394;SDS011;49531;-34.520;150.798;2023-05-10T02:15:07;1.33;;;0.70;;
63394;SDS011;49531;-34.520;150.798;2023-05-10T02:17:35;0.82;;;0.68;;
63394;SDS011;49531;-34.520;150.798;2023-05-10T02:20:05;1.23;;;0.70;;
63394;SDS011;49531;-34.520;150.798;2023-05-10T02:22:34;1.05;;;0.73;;
63394;SDS011;49531;-34.520;150.798;2023-05-10T02:25:02;0.70;;;0.70;;
63394;SDS011;49531;-34.520;150.798;2023-05-10T02:27:31;1.13;;;0.65;;
63394;SDS011;49531;-34.520;150.798;2023-05-10T02:30:00;0.70;;;0.70;;
63394;SDS011;49531;-34.520;150.798;2023-05-10T02:32:28;1.15;;;0.80;;
63394;SDS011;49531;-34.520;150.798;2023-05-10T02:34:56;2.45;;;0.70;;
63394;SDS011;49531;-34.520;150.798;2023-05-10T02:37:26;1.20;;;0.70;;
63394;SDS011;49531;-34.520;150.798;2023-05-10T02:39:54;1.20;;;0.70;;
63394;SDS011;49531;-34.520;150.798;2023-05-10T02:42:25;0.70;;;0.70;;
63394;SDS011;49531;-34.520;150.798;2023-05-10T02:44:56;1.27;;;0.80;;
63394;SDS011;49531;-34.520;150.798;2023-05-10T02:49:54;0.90;;;0.60;;
63394;SDS011;49531;-34.520;150.798;2023-05-10T02:52:23;0.95;;;0.60;;
63394;SDS011;49531;-34.520;150.798;2023-05-10T02:54:55;1.05;;;0.80;;
63394;SDS011;49531;-34.520;150.798;2023-05-10T02:57:27;0.60;;;0.60;;
63394;SDS011;49531;-34.520;150.798;2023-05-10T02:59:58;0.70;;;0.70;;
63394;SDS011;49531;-34.520;150.798;2023-05-10T03:02:26;0.77;;;0.77;;
63394;SDS011;49531;-34.520;150.798;2023-05-10T03:04:53;1.35;;;0.80;;
63394;SDS011;49531;-34.520;150.798;2023-05-10T03:07:20;0.90;;;0.60;;
63394;SDS011;49531;-34.520;150.798;2023-05-10T03:09:48;0.80;;;0.70;;
63394;SDS011;49531;-34.520;150.798;2023-05-10T03:12:26;1.35;;;0.70;;
63394;SDS011;49531;-34.520;150.798;2023-05-10T03:15:18;1.00;;;0.80;;
63394;SDS011;49531;-34.520;150.798;2023-05-10T03:18:09;1.30;;;0.70;;
63394;SDS011;49531;-34.520;150.798;2023-05-10T03:20:41;0.80;;;0.80;;
63394;SDS011;49531;-34.520;150.798;2023-05-10T03:23:15;0.85;;;0.70;;
63394;SDS011;49531;-34.520;150.798;2023-05-10T03:26:03;1.52;;;0.80;;
63394;SDS011;49531;-34.520;150.798;2023-05-10T03:28:32;1.02;;;0.77;;
63394;SDS011;49531;-34.520;150.798;2023-05-10T03:31:01;0.80;;;0.70;;
63394;SDS011;49531;-34.520;150.798;2023-05-10T03:33:31;1.23;;;0.85;;
63394;SDS011;49531;-34.520;150.798;2023-05-10T03:35:58;1.48;;;0.88;;
63394;SDS011;49531;-34.520;150.798;2023-05-10T03:38:25;1.52;;;0.88;;
63394;SDS011;49531;-34.520;150.798;2023-05-10T03:40:52;0.80;;;0.70;;
63394;SDS011;49531;-34.520;150.798;2023-05-10T03:43:19;0.90;;;0.70;;
63394;SDS011;49531;-34.520;150.798;2023-05-10T03:45:47;0.93;;;0.70;;
63394;SDS011;49531;-34.520;150.798;2023-05-10T03:48:14;1.13;;;0.80;;
63394;SDS011;49531;-34.520;150.798;2023-05-10T03:50:41;1.02;;;0.73;;
63394;SDS011;49531;-34.520;150.798;2023-05-10T03:53:08;1.10;;;0.73;;
63394;SDS011;49531;-34.520;150.798;2023-05-10T03:55:35;0.90;;;0.77;;
63394;SDS011;49531;-34.520;150.798;2023-05-10T03:58:02;1.52;;;0.90;;
63394;SDS011;49531;-34.520;150.798;2023-05-10T04:00:29;1.20;;;0.80;;
63394;SDS011;49531;-34.520;150.798;2023-05-10T04:02:57;0.90;;;0.80;;
63394;SDS011;49531;-34.520;150.798;2023-05-10T04:05:24;0.90;;;0.73;;
63394;SDS011;49531;-34.520;150.798;2023-05-10T04:07:51;1.38;;;0.90;;
63394;SDS011;49531;-34.520;150.798;2023-05-10T04:10:19;1.77;;;0.73;;
63394;SDS011;49531;-34.520;150.798;2023-05-10T04:12:46;2.58;;;0.90;;
63394;SDS011;49531;-34.520;150.798;2023-05-10T04:15:13;1.10;;;0.95;;
63394;SDS011;49531;-34.520;150.798;2023-05-10T04:17:41;3.10;;;1.00;;
63394;SDS011;49531;-34.520;150.798;2023-05-10T04:20:08;2.53;;;0.73;;
63394;SDS011;49531;-34.520;150.798;2023-05-10T04:22:35;1.40;;;0.90;;
63394;SDS011;49531;-34.520;150.798;2023-05-10T04:25:02;1.98;;;1.00;;
63394;SDS011;49531;-34.520;150.798;2023-05-10T04:27:30;1.73;;;0.90;;
63394;SDS011;49531;-34.520;150.798;2023-05-10T04:29:57;2.75;;;0.95;;
63394;SDS011;49531;-34.520;150.798;2023-05-10T04:32:24;1.10;;;0.90;;
63394;SDS011;49531;-34.520;150.798;2023-05-10T04:34:51;1.60;;;0.90;;
63394;SDS011;49531;-34.520;150.798;2023-05-10T04:37:18;2.03;;;1.00;;
63394;SDS011;49531;-34.520;150.798;2023-05-10T04:39:47;2.55;;;1.05;;
63394;SDS011;49531;-34.520;150.798;2023-05-10T04:42:14;5.15;;;1.00;;
63394;SDS011;49531;-34.520;150.798;2023-05-10T04:44:41;2.78;;;0.80;;
63394;SDS011;49531;-34.520;150.798;2023-05-10T04:47:09;2.10;;;0.85;;
63394;SDS011;49531;-34.520;150.798;2023-05-10T04:49:37;2.75;;;1.08;;
63394;SDS011;49531;-34.520;150.798;2023-05-10T04:52:04;3.28;;;1.10;;
63394;SDS011;49531;-34.520;150.798;2023-05-10T04:54:31;2.08;;;1.10;;
63394;SDS011;49531;-34.520;150.798;2023-05-10T04:56:58;1.42;;;0.90;;
63394;SDS011;49531;-34.520;150.798;2023-05-10T04:59:25;3.30;;;1.00;;
63394;SDS011;49531;-34.520;150.798;2023-05-10T05:01:52;3.65;;;0.90;;
63394;SDS011;49531;-34.520;150.798;2023-05-10T05:04:19;2.15;;;0.90;;
63394;SDS011;49531;-34.520;150.798;2023-05-10T05:06:48;3.55;;;1.00;;
63394;SDS011;49531;-34.520;150.798;2023-05-10T05:09:16;2.55;;;1.00;;
63394;SDS011;49531;-34.520;150.798;2023-05-10T05:11:44;1.98;;;0.85;;
63394;SDS011;49531;-34.520;150.798;2023-05-10T05:14:11;2.40;;;1.00;;
63394;SDS011;49531;-34.520;150.798;2023-05-10T05:16:38;2.75;;;1.00;;
63394;SDS011;49531;-34.520;150.798;2023-05-10T05:19:05;1.75;;;0.90;;
63394;SDS011;49531;-34.520;150.798;2023-05-10T05:21:32;2.38;;;1.10;;
63394;SDS011;49531;-34.520;150.798;2023-05-10T05:23:59;2.70;;;1.10;;
63394;SDS011;49531;-34.520;150.798;2023-05-10T05:26:26;2.90;;;1.20;;
63394;SDS011;49531;-34.520;150.798;2023-05-10T05:28:53;6.07;;;1.40;;
63394;SDS011;49531;-34.520;150.798;2023-05-10T05:31:20;4.95;;;1.35;;
63394;SDS011;49531;-34.520;150.798;2023-05-10T05:33:47;6.88;;;1.50;;
63394;SDS011;49531;-34.520;150.798;2023-05-10T05:36:15;2.65;;;1.10;;
63394;SDS011;49531;-34.520;150.798;2023-05-10T05:38:42;3.05;;;1.00;;
63394;SDS011;49531;-34.520;150.798;2023-05-10T05:41:09;5.47;;;1.27;;
63394;SDS011;49531;-34.520;150.798;2023-05-10T05:43:36;4.05;;;1.23;;
63394;SDS011;49531;-34.520;150.798;2023-05-10T05:46:03;1.60;;;0.98;;
63394;SDS011;49531;-34.520;150.798;2023-05-10T05:48:31;2.40;;;1.10;;
63394;SDS011;49531;-34.520;150.798;2023-05-10T05:50:58;2.10;;;1.10;;
63394;SDS011;49531;-34.520;150.798;2023-05-10T05:53:25;2.72;;;1.10;;
63394;SDS011;49531;-34.520;150.798;2023-05-10T05:55:54;3.20;;;1.17;;
63394;SDS011;49531;-34.520;150.798;2023-05-10T05:58:22;2.35;;;1.20;;
63394;SDS011;49531;-34.520;150.798;2023-05-10T06:00:50;1.73;;;0.88;;
63394;SDS011;49531;-34.520;150.798;2023-05-10T06:03:18;2.53;;;1.10;;
63394;SDS011;49531;-34.520;150.798;2023-05-10T06:05:46;1.85;;;1.00;;
63394;SDS011;49531;-34.520;150.798;2023-05-10T06:08:13;2.40;;;1.05;;
63394;SDS011;49531;-34.520;150.798;2023-05-10T06:10:40;4.80;;;1.30;;
63394;SDS011;49531;-34.520;150.798;2023-05-10T06:13:08;3.40;;;1.10;;
63394;SDS011;49531;-34.520;150.798;2023-05-10T06:15:35;4.22;;;1.00;;
63394;SDS011;49531;-34.520;150.798;2023-05-10T06:18:02;4.03;;;0.95;;
63394;SDS011;49531;-34.520;150.798;2023-05-10T06:20:30;3.05;;;1.05;;
63394;SDS011;49531;-34.520;150.798;2023-05-10T06:22:57;2.85;;;1.10;;
63394;SDS011;49531;-34.520;150.798;2023-05-10T06:25:24;2.92;;;1.05;;
63394;SDS011;49531;-34.520;150.798;2023-05-10T06:27:52;4.13;;;1.30;;
63394;SDS011;49531;-34.520;150.798;2023-05-10T06:30:23;3.08;;;1.20;;
63394;SDS011;49531;-34.520;150.798;2023-05-10T06:32:53;4.15;;;1.55;;
63394;SDS011;49531;-34.520;150.798;2023-05-10T06:35:21;5.38;;;1.63;;
63394;SDS011;49531;-34.520;150.798;2023-05-10T06:37:48;5.72;;;1.98;;
63394;SDS011;49531;-34.520;150.798;2023-05-10T06:40:17;3.25;;;1.60;;
63394;SDS011;49531;-34.520;150.798;2023-05-10T06:42:45;4.55;;;1.95;;
63394;SDS011;49531;-34.520;150.798;2023-05-10T06:45:13;4.20;;;1.90;;
63394;SDS011;49531;-34.520;150.798;2023-05-10T06:47:41;6.13;;;1.90;;
63394;SDS011;49531;-34.520;150.798;2023-05-10T06:50:09;5.00;;;1.98;;
63394;SDS011;49531;-34.520;150.798;2023-05-10T06:52:37;3.10;;;1.70;;
63394;SDS011;49531;-34.520;150.798;2023-05-10T06:55:04;5.00;;;1.90;;
63394;SDS011;49531;-34.520;150.798;2023-05-10T06:57:32;5.50;;;1.92;;
63394;SDS011;49531;-34.520;150.798;2023-05-10T06:59:59;4.75;;;2.03;;
63394;SDS011;49531;-34.520;150.798;2023-05-10T07:02:27;6.88;;;2.30;;
63394;SDS011;49531;-34.520;150.798;2023-05-10T07:04:54;4.75;;;1.83;;
63394;SDS011;49531;-34.520;150.798;2023-05-10T07:07:21;5.97;;;2.08;;
63394;SDS011;49531;-34.520;150.798;2023-05-10T07:09:49;4.90;;;2.00;;
63394;SDS011;49531;-34.520;150.798;2023-05-10T07:12:17;6.07;;;2.42;;
63394;SDS011;49531;-34.520;150.798;2023-05-10T07:14:45;5.65;;;2.30;;
63394;SDS011;49531;-34.520;150.798;2023-05-10T07:17:12;7.30;;;2.20;;
63394;SDS011;49531;-34.520;150.798;2023-05-10T07:19:39;7.15;;;2.40;;
63394;SDS011;49531;-34.520;150.798;2023-05-10T07:22:06;6.18;;;2.22;;
63394;SDS011;49531;-34.520;150.798;2023-05-10T07:24:34;9.40;;;3.03;;
63394;SDS011;49531;-34.520;150.798;2023-05-10T07:27:01;4.53;;;2.40;;
63394;SDS011;49531;-34.520;150.798;2023-05-10T07:29:28;6.35;;;2.22;;
63394;SDS011;49531;-34.520;150.798;2023-05-10T07:31:55;2.83;;;1.98;;
63394;SDS011;49531;-34.520;150.798;2023-05-10T07:34:22;4.07;;;2.20;;
63394;SDS011;49531;-34.520;150.798;2023-05-10T07:36:49;4.45;;;2.00;;
63394;SDS011;49531;-34.520;150.798;2023-05-10T07:39:16;4.80;;;2.13;;
63394;SDS011;49531;-34.520;150.798;2023-05-10T07:41:43;3.67;;;1.90;;
63394;SDS011;49531;-34.520;150.798;2023-05-10T07:44:11;3.33;;;1.83;;
63394;SDS011;49531;-34.520;150.798;2023-05-10T07:46:38;3.10;;;1.85;;
63394;SDS011;49531;-34.520;150.798;2023-05-10T07:49:06;3.25;;;1.70;;
63394;SDS011;49531;-34.520;150.798;2023-05-10T07:51:33;2.80;;;1.75;;
63394;SDS011;49531;-34.520;150.798;2023-05-10T07:54:00;2.75;;;1.55;;
63394;SDS011;49531;-34.520;150.798;2023-05-10T07:56:28;4.80;;;1.63;;
63394;SDS011;49531;-34.520;150.798;2023-05-10T07:58:57;3.30;;;1.60;;
63394;SDS011;49531;-34.520;150.798;2023-05-10T08:01:25;3.42;;;1.58;;
63394;SDS011;49531;-34.520;150.798;2023-05-10T08:03:55;4.60;;;1.60;;
63394;SDS011;49531;-34.520;150.798;2023-05-10T08:06:25;4.15;;;1.58;;
63394;SDS011;49531;-34.520;150.798;2023-05-10T08:08:55;2.35;;;1.60;;
63394;SDS011;49531;-34.520;150.798;2023-05-10T08:11:22;4.47;;;1.40;;
63394;SDS011;49531;-34.520;150.798;2023-05-10T08:13:50;3.88;;;1.50;;
63394;SDS011;49531;-34.520;150.798;2023-05-10T08:16:18;3.35;;;1.40;;
63394;SDS011;49531;-34.520;150.798;2023-05-10T08:18:45;3.33;;;1.58;;
63394;SDS011;49531;-34.520;150.798;2023-05-10T08:21:16;3.63;;;1.40;;
63394;SDS011;49531;-34.520;150.798;2023-05-10T08:23:43;3.88;;;1.40;;
63394;SDS011;49531;-34.520;150.798;2023-05-10T08:26:10;2.90;;;1.30;;
63394;SDS011;49531;-34.520;150.798;2023-05-10T08:28:37;3.95;;;1.40;;
63394;SDS011;49531;-34.520;150.798;2023-05-10T08:31:05;2.03;;;1.40;;
63394;SDS011;49531;-34.520;150.798;2023-05-10T08:33:32;2.05;;;1.20;;
63394;SDS011;49531;-34.520;150.798;2023-05-10T08:35:59;2.40;;;1.48;;
63394;SDS011;49531;-34.520;150.798;2023-05-10T08:38:26;2.75;;;1.30;;
63394;SDS011;49531;-34.520;150.798;2023-05-10T08:40:54;3.63;;;1.50;;
63394;SDS011;49531;-34.520;150.798;2023-05-10T08:43:22;2.10;;;1.23;;
63394;SDS011;49531;-34.520;150.798;2023-05-10T08:45:54;2.60;;;1.40;;
63394;SDS011;49531;-34.520;150.798;2023-05-10T08:48:31;1.92;;;1.17;;
63394;SDS011;49531;-34.520;150.798;2023-05-10T08:51:00;2.22;;;1.30;;
63394;SDS011;49531;-34.520;150.798;2023-05-10T08:53:29;2.75;;;1.20;;
63394;SDS011;49531;-34.520;150.798;2023-05-10T08:55:59;3.55;;;1.35;;
63394;SDS011;49531;-34.520;150.798;2023-05-10T08:58:27;5.05;;;1.50;;
63394;SDS011;49531;-34.520;150.798;2023-05-10T09:00:54;3.22;;;1.23;;
63394;SDS011;49531;-34.520;150.798;2023-05-10T09:03:23;2.85;;;1.30;;
63394;SDS011;49531;-34.520;150.798;2023-05-10T09:05:50;2.90;;;1.30;;
63394;SDS011;49531;-34.520;150.798;2023-05-10T09:08:17;2.60;;;1.20;;
63394;SDS011;49531;-34.520;150.798;2023-05-10T09:10:46;2.30;;;1.25;;
63394;SDS011;49531;-34.520;150.798;2023-05-10T09:13:14;2.03;;;1.27;;
63394;SDS011;49531;-34.520;150.798;2023-05-10T09:15:44;3.33;;;1.30;;
63394;SDS011;49531;-34.520;150.798;2023-05-10T09:18:12;2.45;;;1.50;;
63394;SDS011;49531;-34.520;150.798;2023-05-10T09:20:39;2.90;;;1.30;;
63394;SDS011;49531;-34.520;150.798;2023-05-10T09:23:07;2.90;;;1.40;;
63394;SDS011;49531;-34.520;150.798;2023-05-10T09:25:34;2.25;;;1.30;;
63394;SDS011;49531;-34.520;150.798;2023-05-10T09:28:06;4.50;;;1.40;;
63394;SDS011;49531;-34.520;150.798;2023-05-10T09:30:34;2.38;;;1.35;;
63394;SDS011;49531;-34.520;150.798;2023-05-10T09:33:02;1.83;;;1.40;;
63394;SDS011;49531;-34.520;150.798;2023-05-10T09:35:30;2.55;;;1.30;;
63394;SDS011;49531;-34.520;150.798;2023-05-10T09:38:01;2.60;;;1.40;;
63394;SDS011;49531;-34.520;150.798;2023-05-10T09:40:30;4.47;;;1.75;;
63394;SDS011;49531;-34.520;150.798;2023-05-10T09:43:00;3.70;;;1.50;;
63394;SDS011;49531;-34.520;150.798;2023-05-10T09:45:30;3.00;;;1.60;;
63394;SDS011;49531;-34.520;150.798;2023-05-10T09:47:59;2.50;;;1.50;;
63394;SDS011;49531;-34.520;150.798;2023-05-10T09:50:28;3.95;;;1.50;;
63394;SDS011;49531;-34.520;150.798;2023-05-10T09:52:56;6.07;;;1.75;;
63394;SDS011;49531;-34.520;150.798;2023-05-10T09:55:26;5.50;;;1.60;;
63394;SDS011;49531;-34.520;150.798;2023-05-10T09:58:05;4.38;;;1.50;;
63394;SDS011;49531;-34.520;150.798;2023-05-10T10:00:36;4.00;;;1.40;;
63394;SDS011;49531;-34.520;150.798;2023-05-10T10:03:06;5.70;;;1.75;;
63394;SDS011;49531;-34.520;150.798;2023-05-10T10:05:39;7.67;;;1.87;;
63394;SDS011;49531;-34.520;150.798;2023-05-10T10:08:08;6.60;;;1.60;;
63394;SDS011;49531;-34.520;150.798;2023-05-10T10:10:36;6.93;;;1.70;;
63394;SDS011;49531;-34.520;150.798;2023-05-10T10:13:05;7.10;;;1.48;;
63394;SDS011;49531;-34.520;150.798;2023-05-10T10:15:34;6.55;;;1.75;;
63394;SDS011;49531;-34.520;150.798;2023-05-10T10:18:01;4.03;;;1.30;;
63394;SDS011;49531;-34.520;150.798;2023-05-10T10:20:29;5.75;;;1.52;;
63394;SDS011;49531;-34.520;150.798;2023-05-10T10:22:57;3.95;;;1.33;;
63394;SDS011;49531;-34.520;150.798;2023-05-10T10:25:24;4.90;;;1.50;;
63394;SDS011;49531;-34.520;150.798;2023-05-10T10:30:48;7.57;;;1.55;;
63394;SDS011;49531;-34.520;150.798;2023-05-10T10:33:30;2.83;;;1.20;;
63394;SDS011;49531;-34.520;150.798;2023-05-10T10:36:18;4.75;;;1.40;;
63394;SDS011;49531;-34.520;150.798;2023-05-10T10:38:58;6.15;;;1.45;;
63394;SDS011;49531;-34.520;150.798;2023-05-10T10:41:27;5.32;;;1.33;;
63394;SDS011;49531;-34.520;150.798;2023-05-10T10:44:53;7.20;;;1.50;;
63394;SDS011;49531;-34.520;150.798;2023-05-10T10:49:51;5.30;;;1.50;;
63394;SDS011;49531;-34.520;150.798;2023-05-10T10:52:31;4.93;;;1.42;;
63394;SDS011;49531;-34.520;150.798;2023-05-10T10:55:07;8.07;;;1.80;;
63394;SDS011;49531;-34.520;150.798;2023-05-10T10:57:44;7.15;;;1.58;;
63394;SDS011;49531;-34.520;150.798;2023-05-10T11:00:21;7.20;;;1.58;;
63394;SDS011;49531;-34.520;150.798;2023-05-10T11:02:51;5.43;;;1.40;;
63394;SDS011;49531;-34.520;150.798;2023-05-10T11:05:37;5.85;;;1.45;;
63394;SDS011;49531;-34.520;150.798;2023-05-10T11:08:09;6.47;;;1.50;;
63394;SDS011;49531;-34.520;150.798;2023-05-10T11:10:49;8.32;;;1.65;;
63394;SDS011;49531;-34.520;150.798;2023-05-10T11:13:27;8.80;;;1.77;;
63394;SDS011;49531;-34.520;150.798;2023-05-10T11:15:59;7.05;;;1.17;;
63394;SDS011;49531;-34.520;150.798;2023-05-10T11:19:03;5.28;;;1.50;;
63394;SDS011;49531;-34.520;150.798;2023-05-10T11:21:30;4.03;;;1.20;;
63394;SDS011;49531;-34.520;150.798;2023-05-10T11:23:59;4.07;;;1.20;;
63394;SDS011;49531;-34.520;150.798;2023-05-10T11:26:32;6.43;;;1.40;;
63394;SDS011;49531;-34.520;150.798;2023-05-10T11:29:01;3.67;;;1.10;;
63394;SDS011;49531;-34.520;150.798;2023-05-10T11:31:30;6.55;;;1.50;;
63394;SDS011;49531;-34.520;150.798;2023-05-10T11:33:57;3.70;;;1.30;;
63394;SDS011;49531;-34.520;150.798;2023-05-10T11:36:28;5.35;;;1.33;;
63394;SDS011;49531;-34.520;150.798;2023-05-10T11:38:58;2.53;;;1.00;;
63394;SDS011;49531;-34.520;150.798;2023-05-10T11:41:27;2.95;;;1.00;;
63394;SDS011;49531;-34.520;150.798;2023-05-10T11:43:56;5.15;;;1.30;;
63394;SDS011;49531;-34.520;150.798;2023-05-10T11:46:24;2.97;;;1.10;;
63394;SDS011;49531;-34.520;150.798;2023-05-10T11:48:57;5.05;;;1.20;;
63394;SDS011;49531;-34.520;150.798;2023-05-10T11:51:27;4.22;;;1.05;;
63394;SDS011;49531;-34.520;150.798;2023-05-10T11:53:55;5.30;;;1.25;;
63394;SDS011;49531;-34.520;150.798;2023-05-10T11:56:23;3.95;;;1.10;;
63394;SDS011;49531;-34.520;150.798;2023-05-10T11:58:53;9.05;;;1.65;;
63394;SDS011;49531;-34.520;150.798;2023-05-10T12:01:22;5.55;;;1.38;;
63394;SDS011;49531;-34.520;150.798;2023-05-10T12:03:51;6.22;;;1.60;;
63394;SDS011;49531;-34.520;150.798;2023-05-10T12:06:21;7.88;;;1.50;;
63394;SDS011;49531;-34.520;150.798;2023-05-10T12:08:48;7.72;;;1.40;;
63394;SDS011;49531;-34.520;150.798;2023-05-10T12:11:19;4.88;;;1.10;;
63394;SDS011;49531;-34.520;150.798;2023-05-10T12:13:47;6.82;;;1.42;;
63394;SDS011;49531;-34.520;150.798;2023-05-10T12:16:16;4.05;;;1.10;;
63394;SDS011;49531;-34.520;150.798;2023-05-10T12:18:49;5.75;;;1.30;;
63394;SDS011;49531;-34.520;150.798;2023-05-10T12:21:18;4.43;;;1.10;;
63394;SDS011;49531;-34.520;150.798;2023-05-10T12:23:48;2.05;;;0.95;;
63394;SDS011;49531;-34.520;150.798;2023-05-10T12:26:18;0.98;;;0.75;;
63394;SDS011;49531;-34.520;150.798;2023-05-10T12:28:48;1.00;;;0.80;;
63394;SDS011;49531;-34.520;150.798;2023-05-10T12:31:15;1.13;;;0.77;;
63394;SDS011;49531;-34.520;150.798;2023-05-10T12:33:43;1.27;;;0.90;;
63394;SDS011;49531;-34.520;150.798;2023-05-10T12:36:12;1.05;;;0.75;;
63394;SDS011;49531;-34.520;150.798;2023-05-10T12:38:42;1.45;;;0.80;;
63394;SDS011;49531;-34.520;150.798;2023-05-10T12:41:13;1.48;;;0.90;;
63394;SDS011;49531;-34.520;150.798;2023-05-10T12:43:42;2.63;;;0.80;;
63394;SDS011;49531;-34.520;150.798;2023-05-10T12:46:14;1.40;;;0.82;;
63394;SDS011;49531;-34.520;150.798;2023-05-10T12:48:43;0.88;;;0.70;;
63394;SDS011;49531;-34.520;150.798;2023-05-10T12:51:15;2.00;;;0.80;;
63394;SDS011;49531;-34.520;150.798;2023-05-10T12:53:47;1.88;;;0.90;;
63394;SDS011;49531;-34.520;150.798;2023-05-10T12:56:14;2.03;;;0.70;;
63394;SDS011;49531;-34.520;150.798;2023-05-10T12:58:41;0.88;;;0.70;;
63394;SDS011;49531;-34.520;150.798;2023-05-10T13:01:13;1.17;;;0.70;;
63394;SDS011;49531;-34.520;150.798;2023-05-10T13:03:40;1.08;;;0.70;;
63394;SDS011;49531;-34.520;150.798;2023-05-10T13:06:08;1.35;;;0.85;;
63394;SDS011;49531;-34.520;150.798;2023-05-10T13:08:35;1.40;;;0.80;;
63394;SDS011;49531;-34.520;150.798;2023-05-10T13:11:02;2.85;;;1.00;;
63394;SDS011;49531;-34.520;150.798;2023-05-10T13:13:30;1.17;;;0.68;;
63394;SDS011;49531;-34.520;150.798;2023-05-10T13:15:57;1.10;;;0.73;;
63394;SDS011;49531;-34.520;150.798;2023-05-10T13:18:24;2.50;;;0.80;;
63394;SDS011;49531;-34.520;150.798;2023-05-10T13:20:51;1.45;;;0.75;;
63394;SDS011;49531;-34.520;150.798;2023-05-10T13:23:19;2.75;;;0.80;;
63394;SDS011;49531;-34.520;150.798;2023-05-10T13:25:47;1.38;;;0.88;;
63394;SDS011;49531;-34.520;150.798;2023-05-10T13:28:14;1.30;;;0.70;;
63394;SDS011;49531;-34.520;150.798;2023-05-10T13:30:41;1.92;;;0.80;;
63394;SDS011;49531;-34.520;150.798;2023-05-10T13:33:08;2.75;;;0.90;;
63394;SDS011;49531;-34.520;150.798;2023-05-10T13:35:35;0.88;;;0.80;;
63394;SDS011;49531;-34.520;150.798;2023-05-10T13:38:02;0.65;;;0.60;;
63394;SDS011;49531;-34.520;150.798;2023-05-10T13:40:29;1.05;;;0.70;;
63394;SDS011;49531;-34.520;150.798;2023-05-10T13:42:56;1.95;;;0.85;;
63394;SDS011;49531;-34.520;150.798;2023-05-10T13:45:23;1.95;;;0.73;;
63394;SDS011;49531;-34.520;150.798;2023-05-10T13:47:50;2.05;;;0.70;;
63394;SDS011;49531;-34.520;150.798;2023-05-10T13:50:18;1.20;;;0.70;;
63394;SDS011;49531;-34.520;150.798;2023-05-10T13:52:45;1.05;;;0.70;;
63394;SDS011;49531;-34.520;150.798;2023-05-10T13:55:13;2.08;;;0.85;;
63394;SDS011;49531;-34.520;150.798;2023-05-10T13:57:40;1.08;;;0.70;;
63394;SDS011;49531;-34.520;150.798;2023-05-10T14:00:08;3.47;;;0.80;;
63394;SDS011;49531;-34.520;150.798;2023-05-10T14:02:36;0.60;;;0.52;;
63394;SDS011;49531;-34.520;150.798;2023-05-10T14:05:03;0.77;;;0.52;;
63394;SDS011;49531;-34.520;150.798;2023-05-10T14:07:30;0.90;;;0.70;;
63394;SDS011;49531;-34.520;150.798;2023-05-10T14:09:57;1.65;;;0.90;;
63394;SDS011;49531;-34.520;150.798;2023-05-10T14:12:25;2.72;;;0.88;;
63394;SDS011;49531;-34.520;150.798;2023-05-10T14:14:52;1.90;;;0.73;;
63394;SDS011;49531;-34.520;150.798;2023-05-10T14:17:19;0.95;;;0.70;;
63394;SDS011;49531;-34.520;150.798;2023-05-10T14:19:46;1.38;;;0.70;;
63394;SDS011;49531;-34.520;150.798;2023-05-10T14:22:13;1.23;;;0.80;;
63394;SDS011;49531;-34.520;150.798;2023-05-10T14:24:40;2.35;;;0.80;;
63394;SDS011;49531;-34.520;150.798;2023-05-10T14:27:12;1.30;;;0.70;;
63394;SDS011;49531;-34.520;150.798;2023-05-10T14:29:39;2.00;;;0.80;;
63394;SDS011;49531;-34.520;150.798;2023-05-10T14:32:06;0.93;;;0.70;;